sensor_id;sensor_type;location;lat;lon;timestamp;temperature;humidity
22299;DHT22;11317;51.072;17.036;2024-02-15T00:19:08;9.40;99.90
22299;DHT22;11317;51.072;17.036;2024-02-15T00:24:01;8.80;99.90
22299;DHT22;11317;51.072;17.036;2024-02-15T00:26:27;9.10;99.90
22299;DHT22;11317;51.072;17.036;2024-02-15T00:31:19;8.70;99.90
22299;DHT22;11317;51.072;17.036;2024-02-15T00:33:45;8.80;99.90
22299;DHT22;11317;51.072;17.036;2024-02-15T00:38:37;8.60;99.90
22299;DHT22;11317;51.072;17.036;2024-02-15T00:41:06;8.50;99.90
22299;DHT22;11317;51.072;17.036;2024-02-15T00:43:35;8.60;99.90
22299;DHT22;11317;51.072;17.036;2024-02-15T00:46:01;9.10;99.90
22299;DHT22;11317;51.072;17.036;2024-02-15T00:50:55;8.60;99.90
22299;DHT22;11317;51.072;17.036;2024-02-15T01:08:00;8.90;99.90
22299;DHT22;11317;51.072;17.036;2024-02-15T01:12:52;8.60;99.90
22299;DHT22;11317;51.072;17.036;2024-02-15T01:15:18;8.60;99.90
22299;DHT22;11317;51.072;17.036;2024-02-15T01:17:45;8.70;99.90
22299;DHT22;11317;51.072;17.036;2024-02-15T01:20:12;8.50;99.90
22299;DHT22;11317;51.072;17.036;2024-02-15T01:29:57;8.70;99.90
22299;DHT22;11317;51.072;17.036;2024-02-15T01:34:49;8.90;99.90
22299;DHT22;11317;51.072;17.036;2024-02-15T01:39:46;8.70;99.90
22299;DHT22;11317;51.072;17.036;2024-02-15T01:42:12;8.80;99.90
22299;DHT22;11317;51.072;17.036;2024-02-15T01:47:06;8.80;99.90
22299;DHT22;11317;51.072;17.036;2024-02-15T01:49:34;8.70;99.90
22299;DHT22;11317;51.072;17.036;2024-02-15T01:52:00;8.60;99.90
22299;DHT22;11317;51.072;17.036;2024-02-15T01:56:54;8.60;99.90
22299;DHT22;11317;51.072;17.036;2024-02-15T01:59:23;8.60;99.90
22299;DHT22;11317;51.072;17.036;2024-02-15T02:01:49;8.70;99.90
22299;DHT22;11317;51.072;17.036;2024-02-15T02:09:11;8.80;99.90
22299;DHT22;11317;51.072;17.036;2024-02-15T02:11:46;8.60;99.90
22299;DHT22;11317;51.072;17.036;2024-02-15T02:21:35;8.80;99.90
22299;DHT22;11317;51.072;17.036;2024-02-15T02:24:03;5.70;99.90
22299;DHT22;11317;51.072;17.036;2024-02-15T02:31:39;8.70;99.90
22299;DHT22;11317;51.072;17.036;2024-02-15T02:34:05;8.50;99.90
22299;DHT22;11317;51.072;17.036;2024-02-15T02:41:28;8.80;99.90
22299;DHT22;11317;51.072;17.036;2024-02-15T02:43:57;8.80;99.90
22299;DHT22;11317;51.072;17.036;2024-02-15T02:46:23;8.60;99.90
22299;DHT22;11317;51.072;17.036;2024-02-15T02:56:09;8.60;99.90
22299;DHT22;11317;51.072;17.036;2024-02-15T03:10:47;8.90;99.90
22299;DHT22;11317;51.072;17.036;2024-02-15T03:13:13;8.70;99.90
22299;DHT22;11317;51.072;17.036;2024-02-15T03:15:39;9.20;99.90
22299;DHT22;11317;51.072;17.036;2024-02-15T03:20:37;8.90;99.90
22299;DHT22;11317;51.072;17.036;2024-02-15T03:25:29;8.90;99.90
22299;DHT22;11317;51.072;17.036;2024-02-15T03:27:59;8.90;99.90
22299;DHT22;11317;51.072;17.036;2024-02-15T03:30:31;8.70;99.90
22299;DHT22;11317;51.072;17.036;2024-02-15T03:32:57;9.10;99.90
22299;DHT22;11317;51.072;17.036;2024-02-15T03:35:25;9.10;99.90
22299;DHT22;11317;51.072;17.036;2024-02-15T03:37:53;9.10;99.90
22299;DHT22;11317;51.072;17.036;2024-02-15T03:40:22;9.00;99.90
22299;DHT22;11317;51.072;17.036;2024-02-15T03:42:53;8.40;99.90
22299;DHT22;11317;51.072;17.036;2024-02-15T03:45:19;9.20;99.90
22299;DHT22;11317;51.072;17.036;2024-02-15T03:50:12;9.10;99.90
22299;DHT22;11317;51.072;17.036;2024-02-15T03:52:40;9.10;99.90
22299;DHT22;11317;51.072;17.036;2024-02-15T03:55:07;8.90;99.90
22299;DHT22;11317;51.072;17.036;2024-02-15T03:57:33;9.10;99.90
22299;DHT22;11317;51.072;17.036;2024-02-15T03:59:59;8.90;99.90
22299;DHT22;11317;51.072;17.036;2024-02-15T04:04:56;9.00;99.90
22299;DHT22;11317;51.072;17.036;2024-02-15T04:07:23;9.00;99.90
22299;DHT22;11317;51.072;17.036;2024-02-15T04:09:51;9.00;99.90
22299;DHT22;11317;51.072;17.036;2024-02-15T04:14:46;8.90;99.90
22299;DHT22;11317;51.072;17.036;2024-02-15T04:17:13;8.80;99.90
22299;DHT22;11317;51.072;17.036;2024-02-15T04:19:44;8.80;99.90
22299;DHT22;11317;51.072;17.036;2024-02-15T04:22:10;8.80;99.90
22299;DHT22;11317;51.072;17.036;2024-02-15T04:24:36;8.80;99.90
22299;DHT22;11317;51.072;17.036;2024-02-15T04:32:12;8.90;99.90
22299;DHT22;11317;51.072;17.036;2024-02-15T04:34:39;9.20;99.90
22299;DHT22;11317;51.072;17.036;2024-02-15T04:46:54;9.20;99.90
22299;DHT22;11317;51.072;17.036;2024-02-15T04:49:20;8.90;99.90
22299;DHT22;11317;51.072;17.036;2024-02-15T04:51:47;9.10;99.90
22299;DHT22;11317;51.072;17.036;2024-02-15T04:54:15;9.10;99.90
22299;DHT22;11317;51.072;17.036;2024-02-15T04:59:11;9.40;99.90
22299;DHT22;11317;51.072;17.036;2024-02-15T05:04:11;9.00;99.90
22299;DHT22;11317;51.072;17.036;2024-02-15T05:06:38;9.50;99.90
22299;DHT22;11317;51.072;17.036;2024-02-15T05:09:04;8.90;99.90
22299;DHT22;11317;51.072;17.036;2024-02-15T05:11:39;8.80;99.90
22299;DHT22;11317;51.072;17.036;2024-02-15T05:14:13;9.00;99.90
22299;DHT22;11317;51.072;17.036;2024-02-15T05:16:45;8.90;99.90
22299;DHT22;11317;51.072;17.036;2024-02-15T05:19:14;9.10;99.90
22299;DHT22;11317;51.072;17.036;2024-02-15T05:24:06;8.90;99.90
22299;DHT22;11317;51.072;17.036;2024-02-15T05:28:58;8.70;99.90
22299;DHT22;11317;51.072;17.036;2024-02-15T05:31:24;8.70;99.90
22299;DHT22;11317;51.072;17.036;2024-02-15T05:33:53;8.50;99.90
22299;DHT22;11317;51.072;17.036;2024-02-15T05:36:20;8.70;99.90
22299;DHT22;11317;51.072;17.036;2024-02-15T05:38:52;8.80;99.90
22299;DHT22;11317;51.072;17.036;2024-02-15T05:41:19;8.70;99.90
22299;DHT22;11317;51.072;17.036;2024-02-15T05:46:14;8.70;99.90
22299;DHT22;11317;51.072;17.036;2024-02-15T05:48:40;8.70;99.90
22299;DHT22;11317;51.072;17.036;2024-02-15T05:51:08;8.70;99.90
22299;DHT22;11317;51.072;17.036;2024-02-15T05:53:34;8.70;99.90
22299;DHT22;11317;51.072;17.036;2024-02-15T05:56:06;8.70;99.90
22299;DHT22;11317;51.072;17.036;2024-02-15T05:58:33;8.70;99.90
22299;DHT22;11317;51.072;17.036;2024-02-15T06:00:59;8.80;99.90
22299;DHT22;11317;51.072;17.036;2024-02-15T06:03:31;8.70;99.90
22299;DHT22;11317;51.072;17.036;2024-02-15T06:08:28;8.80;99.90
22299;DHT22;11317;51.072;17.036;2024-02-15T06:13:22;8.80;99.90
22299;DHT22;11317;51.072;17.036;2024-02-15T06:15:49;8.80;99.90
22299;DHT22;11317;51.072;17.036;2024-02-15T06:18:25;8.80;99.90
22299;DHT22;11317;51.072;17.036;2024-02-15T06:20:53;8.80;99.90
22299;DHT22;11317;51.072;17.036;2024-02-15T06:23:19;8.50;99.90
22299;DHT22;11317;51.072;17.036;2024-02-15T06:25:51;8.80;99.90
22299;DHT22;11317;51.072;17.036;2024-02-15T06:31:03;8.40;99.90
22299;DHT22;11317;51.072;17.036;2024-02-15T06:33:47;9.00;99.90
22299;DHT22;11317;51.072;17.036;2024-02-15T06:36:32;9.00;99.90
22299;DHT22;11317;51.072;17.036;2024-02-15T06:42:01;9.00;99.90
22299;DHT22;11317;51.072;17.036;2024-02-15T06:49:21;9.00;99.90
22299;DHT22;11317;51.072;17.036;2024-02-15T06:51:50;9.20;99.90
22299;DHT22;11317;51.072;17.036;2024-02-15T06:56:45;9.20;99.90
22299;DHT22;11317;51.072;17.036;2024-02-15T06:59:12;9.20;99.90
22299;DHT22;11317;51.072;17.036;2024-02-15T07:01:42;9.20;99.90
22299;DHT22;11317;51.072;17.036;2024-02-15T07:04:09;9.20;99.90
22299;DHT22;11317;51.072;17.036;2024-02-15T07:06:38;9.20;99.90
22299;DHT22;11317;51.072;17.036;2024-02-15T07:09:05;9.20;99.90
22299;DHT22;11317;51.072;17.036;2024-02-15T07:11:34;9.70;99.90
22299;DHT22;11317;51.072;17.036;2024-02-15T07:16:27;9.20;99.90
22299;DHT22;11317;51.072;17.036;2024-02-15T07:18:53;10.00;99.90
22299;DHT22;11317;51.072;17.036;2024-02-15T07:21:20;9.20;99.90
22299;DHT22;11317;51.072;17.036;2024-02-15T07:23:51;9.70;99.90
22299;DHT22;11317;51.072;17.036;2024-02-15T07:26:18;10.00;99.90
22299;DHT22;11317;51.072;17.036;2024-02-15T07:28:45;9.70;99.90
22299;DHT22;11317;51.072;17.036;2024-02-15T07:53:12;10.60;99.90
22299;DHT22;11317;51.072;17.036;2024-02-15T07:55:39;10.90;99.90
22299;DHT22;11317;51.072;17.036;2024-02-15T07:58:05;10.80;99.90
22299;DHT22;11317;51.072;17.036;2024-02-15T08:00:31;10.50;99.90
22299;DHT22;11317;51.072;17.036;2024-02-15T08:07:50;10.50;99.90
22299;DHT22;11317;51.072;17.036;2024-02-15T08:12:44;10.40;99.90
22299;DHT22;11317;51.072;17.036;2024-02-15T08:15:11;10.40;99.90
22299;DHT22;11317;51.072;17.036;2024-02-15T08:17:41;10.50;99.90
22299;DHT22;11317;51.072;17.036;2024-02-15T08:20:11;10.60;99.90
22299;DHT22;11317;51.072;17.036;2024-02-15T08:25:10;10.90;99.90
22299;DHT22;11317;51.072;17.036;2024-02-15T08:27:44;10.80;99.90
22299;DHT22;11317;51.072;17.036;2024-02-15T08:30:13;10.90;99.90
22299;DHT22;11317;51.072;17.036;2024-02-15T08:32:40;10.70;99.90
22299;DHT22;11317;51.072;17.036;2024-02-15T08:35:08;10.70;99.90
22299;DHT22;11317;51.072;17.036;2024-02-15T08:37:37;10.30;99.90
22299;DHT22;11317;51.072;17.036;2024-02-15T08:40:05;10.90;99.90
22299;DHT22;11317;51.072;17.036;2024-02-15T08:42:44;11.00;99.90
22299;DHT22;11317;51.072;17.036;2024-02-15T08:45:10;11.00;99.90
22299;DHT22;11317;51.072;17.036;2024-02-15T08:47:41;11.00;99.90
22299;DHT22;11317;51.072;17.036;2024-02-15T08:50:09;11.50;99.90
22299;DHT22;11317;51.072;17.036;2024-02-15T08:52:39;11.30;99.90
22299;DHT22;11317;51.072;17.036;2024-02-15T08:55:10;11.20;99.90
22299;DHT22;11317;51.072;17.036;2024-02-15T08:57:37;11.20;99.90
22299;DHT22;11317;51.072;17.036;2024-02-15T09:00:07;11.20;99.90
22299;DHT22;11317;51.072;17.036;2024-02-15T09:02:43;11.60;99.90
22299;DHT22;11317;51.072;17.036;2024-02-15T09:10:03;12.10;99.90
22299;DHT22;11317;51.072;17.036;2024-02-15T09:12:29;12.40;99.90
22299;DHT22;11317;51.072;17.036;2024-02-15T09:14:56;12.30;99.90
22299;DHT22;11317;51.072;17.036;2024-02-15T09:17:22;12.20;99.90
22299;DHT22;11317;51.072;17.036;2024-02-15T09:22:15;12.50;99.90
22299;DHT22;11317;51.072;17.036;2024-02-15T09:24:41;12.50;99.90
22299;DHT22;11317;51.072;17.036;2024-02-15T09:27:07;13.10;99.90
22299;DHT22;11317;51.072;17.036;2024-02-15T09:32:00;12.70;99.90
22299;DHT22;11317;51.072;17.036;2024-02-15T09:34:29;12.80;99.90
22299;DHT22;11317;51.072;17.036;2024-02-15T09:41:49;13.00;99.90
22299;DHT22;11317;51.072;17.036;2024-02-15T09:44:21;12.80;99.90
22299;DHT22;11317;51.072;17.036;2024-02-15T09:46:51;12.30;99.90
22299;DHT22;11317;51.072;17.036;2024-02-15T09:49:19;12.60;99.90
22299;DHT22;11317;51.072;17.036;2024-02-15T09:51:47;12.60;99.90
22299;DHT22;11317;51.072;17.036;2024-02-15T09:54:14;12.40;99.90
22299;DHT22;11317;51.072;17.036;2024-02-15T09:56:49;12.70;99.90
22299;DHT22;11317;51.072;17.036;2024-02-15T09:59:16;12.30;99.90
22299;DHT22;11317;51.072;17.036;2024-02-15T10:01:43;12.40;99.90
22299;DHT22;11317;51.072;17.036;2024-02-15T10:06:42;12.30;99.90
22299;DHT22;11317;51.072;17.036;2024-02-15T10:09:27;12.40;99.90
22299;DHT22;11317;51.072;17.036;2024-02-15T10:12:00;10.40;99.90
22299;DHT22;11317;51.072;17.036;2024-02-15T10:14:27;12.40;99.90
22299;DHT22;11317;51.072;17.036;2024-02-15T10:19:20;12.30;99.90
22299;DHT22;11317;51.072;17.036;2024-02-15T10:22:06;12.80;99.90
22299;DHT22;11317;51.072;17.036;2024-02-15T10:27:03;13.10;99.90
22299;DHT22;11317;51.072;17.036;2024-02-15T10:29:36;12.90;99.90
22299;DHT22;11317;51.072;17.036;2024-02-15T10:32:04;13.10;99.90
22299;DHT22;11317;51.072;17.036;2024-02-15T10:34:43;12.70;99.90
22299;DHT22;11317;51.072;17.036;2024-02-15T10:37:15;12.90;99.90
22299;DHT22;11317;51.072;17.036;2024-02-15T10:42:13;13.20;99.90
22299;DHT22;11317;51.072;17.036;2024-02-15T10:44:41;13.30;99.90
22299;DHT22;11317;51.072;17.036;2024-02-15T10:49:35;13.40;99.90
22299;DHT22;11317;51.072;17.036;2024-02-15T10:52:02;13.40;99.90
22299;DHT22;11317;51.072;17.036;2024-02-15T10:54:47;13.30;99.90
22299;DHT22;11317;51.072;17.036;2024-02-15T11:00:00;13.80;99.90
22299;DHT22;11317;51.072;17.036;2024-02-15T11:02:42;14.60;99.90
22299;DHT22;11317;51.072;17.036;2024-02-15T11:05:11;14.80;99.90
22299;DHT22;11317;51.072;17.036;2024-02-15T11:07:40;14.80;99.90
22299;DHT22;11317;51.072;17.036;2024-02-15T11:10:09;15.10;99.90
22299;DHT22;11317;51.072;17.036;2024-02-15T11:12:37;14.60;99.90
22299;DHT22;11317;51.072;17.036;2024-02-15T11:20:09;14.40;99.90
22299;DHT22;11317;51.072;17.036;2024-02-15T11:22:37;14.40;99.90
22299;DHT22;11317;51.072;17.036;2024-02-15T11:25:05;14.80;99.90
